sensor_id;sensor_type;location;lat;lon;timestamp;temperature;humidity
10155;DHT22;5118;48.570;7.916;2023-02-15T00:01:07;1.60;99.90
10155;DHT22;5118;48.570;7.916;2023-02-15T00:03:35;1.70;99.90
10155;DHT22;5118;48.570;7.916;2023-02-15T00:06:04;1.70;99.90
10155;DHT22;5118;48.570;7.916;2023-02-15T00:08:33;1.70;99.90
10155;DHT22;5118;48.570;7.916;2023-02-15T00:11:05;1.70;99.90
10155;DHT22;5118;48.570;7.916;2023-02-15T00:13:34;1.70;99.90
10155;DHT22;5118;48.570;7.916;2023-02-15T00:16:08;1.70;99.90
10155;DHT22;5118;48.570;7.916;2023-02-15T00:18:37;1.70;99.90
10155;DHT22;5118;48.570;7.916;2023-02-15T00:21:07;1.60;99.90
10155;DHT22;5118;48.570;7.916;2023-02-15T00:23:36;1.60;99.90
10155;DHT22;5118;48.570;7.916;2023-02-15T00:26:06;1.60;99.90
10155;DHT22;5118;48.570;7.916;2023-02-15T00:28:34;1.60;99.90
10155;DHT22;5118;48.570;7.916;2023-02-15T00:31:04;1.60;99.90
10155;DHT22;5118;48.570;7.916;2023-02-15T00:33:36;1.60;99.90
10155;DHT22;5118;48.570;7.916;2023-02-15T00:36:07;1.60;99.90
10155;DHT22;5118;48.570;7.916;2023-02-15T00:38:36;1.50;99.90
10155;DHT22;5118;48.570;7.916;2023-02-15T00:41:06;1.50;99.90
10155;DHT22;5118;48.570;7.916;2023-02-15T00:43:35;1.50;99.90
10155;DHT22;5118;48.570;7.916;2023-02-15T00:46:04;1.50;99.90
10155;DHT22;5118;48.570;7.916;2023-02-15T00:48:33;1.50;99.90
10155;DHT22;5118;48.570;7.916;2023-02-15T00:51:02;1.50;99.90
10155;DHT22;5118;48.570;7.916;2023-02-15T00:53:31;1.50;99.90
10155;DHT22;5118;48.570;7.916;2023-02-15T00:55:59;1.50;99.90
10155;DHT22;5118;48.570;7.916;2023-02-15T00:58:28;1.40;99.90
10155;DHT22;5118;48.570;7.916;2023-02-15T01:01:02;1.40;99.90
10155;DHT22;5118;48.570;7.916;2023-02-15T01:03:31;1.40;99.90
10155;DHT22;5118;48.570;7.916;2023-02-15T01:06:03;1.30;99.90
10155;DHT22;5118;48.570;7.916;2023-02-15T01:08:32;1.30;99.90
10155;DHT22;5118;48.570;7.916;2023-02-15T01:11:03;1.30;99.90
10155;DHT22;5118;48.570;7.916;2023-02-15T01:13:32;1.30;99.90
10155;DHT22;5118;48.570;7.916;2023-02-15T01:16:01;1.30;99.90
10155;DHT22;5118;48.570;7.916;2023-02-15T01:18:30;1.20;99.90
10155;DHT22;5118;48.570;7.916;2023-02-15T01:20:58;1.30;99.90
10155;DHT22;5118;48.570;7.916;2023-02-15T01:23:28;1.30;99.90
10155;DHT22;5118;48.570;7.916;2023-02-15T01:25:56;1.20;99.90
10155;DHT22;5118;48.570;7.916;2023-02-15T01:28:29;1.20;99.90
10155;DHT22;5118;48.570;7.916;2023-02-15T01:30:57;1.20;99.90
10155;DHT22;5118;48.570;7.916;2023-02-15T01:33:26;1.20;99.90
10155;DHT22;5118;48.570;7.916;2023-02-15T01:35:58;1.20;99.90
10155;DHT22;5118;48.570;7.916;2023-02-15T01:38:28;1.30;99.90
10155;DHT22;5118;48.570;7.916;2023-02-15T01:40:56;1.30;99.90
10155;DHT22;5118;48.570;7.916;2023-02-15T01:43:47;1.30;99.90
10155;DHT22;5118;48.570;7.916;2023-02-15T01:46:22;1.30;99.90
10155;DHT22;5118;48.570;7.916;2023-02-15T01:48:54;1.30;99.90
10155;DHT22;5118;48.570;7.916;2023-02-15T01:51:26;1.30;99.90
10155;DHT22;5118;48.570;7.916;2023-02-15T01:54:01;1.30;99.90
10155;DHT22;5118;48.570;7.916;2023-02-15T01:56:33;1.30;99.90
10155;DHT22;5118;48.570;7.916;2023-02-15T01:59:06;1.30;99.90
10155;DHT22;5118;48.570;7.916;2023-02-15T02:01:37;1.30;99.90
10155;DHT22;5118;48.570;7.916;2023-02-15T02:04:12;1.20;99.90
10155;DHT22;5118;48.570;7.916;2023-02-15T02:06:41;1.30;99.90
10155;DHT22;5118;48.570;7.916;2023-02-15T02:09:11;1.30;99.90
10155;DHT22;5118;48.570;7.916;2023-02-15T02:11:41;1.30;99.90
10155;DHT22;5118;48.570;7.916;2023-02-15T02:14:12;1.20;99.90
10155;DHT22;5118;48.570;7.916;2023-02-15T02:16:46;1.20;99.90
10155;DHT22;5118;48.570;7.916;2023-02-15T02:19:37;1.30;99.90
10155;DHT22;5118;48.570;7.916;2023-02-15T02:22:33;1.20;99.90
10155;DHT22;5118;48.570;7.916;2023-02-15T02:25:44;1.20;99.90
10155;DHT22;5118;48.570;7.916;2023-02-15T02:28:33;1.20;99.90
10155;DHT22;5118;48.570;7.916;2023-02-15T02:31:26;1.20;99.90
10155;DHT22;5118;48.570;7.916;2023-02-15T02:34:05;1.20;99.90
10155;DHT22;5118;48.570;7.916;2023-02-15T02:36:41;1.20;99.90
10155;DHT22;5118;48.570;7.916;2023-02-15T02:39:22;1.10;99.90
10155;DHT22;5118;48.570;7.916;2023-02-15T02:42:00;1.20;99.90
10155;DHT22;5118;48.570;7.916;2023-02-15T02:44:35;1.20;99.90
10155;DHT22;5118;48.570;7.916;2023-02-15T02:47:13;1.10;99.90
10155;DHT22;5118;48.570;7.916;2023-02-15T02:49:43;1.20;99.90
10155;DHT22;5118;48.570;7.916;2023-02-15T02:52:34;1.20;99.90
10155;DHT22;5118;48.570;7.916;2023-02-15T02:55:05;1.20;99.90
10155;DHT22;5118;48.570;7.916;2023-02-15T02:57:37;1.20;99.90
10155;DHT22;5118;48.570;7.916;2023-02-15T03:00:10;1.20;99.90
10155;DHT22;5118;48.570;7.916;2023-02-15T03:02:41;1.20;99.90
10155;DHT22;5118;48.570;7.916;2023-02-15T03:05:16;1.20;99.90
10155;DHT22;5118;48.570;7.916;2023-02-15T03:07:49;1.20;99.90
10155;DHT22;5118;48.570;7.916;2023-02-15T03:10:21;1.20;99.90
10155;DHT22;5118;48.570;7.916;2023-02-15T03:12:50;1.20;99.90
10155;DHT22;5118;48.570;7.916;2023-02-15T03:15:22;1.20;99.90
10155;DHT22;5118;48.570;7.916;2023-02-15T03:17:55;1.20;99.90
10155;DHT22;5118;48.570;7.916;2023-02-15T03:20:29;1.20;99.90
10155;DHT22;5118;48.570;7.916;2023-02-15T03:23:02;1.10;99.90
10155;DHT22;5118;48.570;7.916;2023-02-15T03:25:34;1.10;99.90
10155;DHT22;5118;48.570;7.916;2023-02-15T03:28:07;1.00;99.90
10155;DHT22;5118;48.570;7.916;2023-02-15T03:30:38;1.00;99.90
10155;DHT22;5118;48.570;7.916;2023-02-15T03:33:07;1.00;99.90
10155;DHT22;5118;48.570;7.916;2023-02-15T03:35:44;1.00;99.90
10155;DHT22;5118;48.570;7.916;2023-02-15T03:38:18;1.00;99.90
10155;DHT22;5118;48.570;7.916;2023-02-15T03:40:48;1.00;99.90
10155;DHT22;5118;48.570;7.916;2023-02-15T03:43:45;1.00;99.90
10155;DHT22;5118;48.570;7.916;2023-02-15T03:46:20;1.00;99.90
10155;DHT22;5118;48.570;7.916;2023-02-15T03:48:53;1.00;99.90
10155;DHT22;5118;48.570;7.916;2023-02-15T03:51:26;1.00;99.90
10155;DHT22;5118;48.570;7.916;2023-02-15T03:54:04;1.00;99.90
10155;DHT22;5118;48.570;7.916;2023-02-15T03:56:34;1.00;99.90
10155;DHT22;5118;48.570;7.916;2023-02-15T03:59:04;1.00;99.90
10155;DHT22;5118;48.570;7.916;2023-02-15T04:01:58;1.00;99.90
10155;DHT22;5118;48.570;7.916;2023-02-15T04:04:35;1.00;99.90
10155;DHT22;5118;48.570;7.916;2023-02-15T04:07:06;1.00;99.90
10155;DHT22;5118;48.570;7.916;2023-02-15T04:09:35;1.00;99.90
10155;DHT22;5118;48.570;7.916;2023-02-15T04:12:21;1.10;99.90
10155;DHT22;5118;48.570;7.916;2023-02-15T04:14:49;1.10;99.90
10155;DHT22;5118;48.570;7.916;2023-02-15T04:17:35;1.10;99.90
10155;DHT22;5118;48.570;7.916;2023-02-15T04:20:05;1.10;99.90
10155;DHT22;5118;48.570;7.916;2023-02-15T04:22:52;1.10;99.90
10155;DHT22;5118;48.570;7.916;2023-02-15T04:25:38;1.20;99.90
10155;DHT22;5118;48.570;7.916;2023-02-15T04:28:06;1.20;99.90
10155;DHT22;5118;48.570;7.916;2023-02-15T04:30:35;1.20;99.90
10155;DHT22;5118;48.570;7.916;2023-02-15T04:33:03;1.20;99.90
10155;DHT22;5118;48.570;7.916;2023-02-15T04:35:32;1.10;99.90
10155;DHT22;5118;48.570;7.916;2023-02-15T04:38:01;1.10;99.90
10155;DHT22;5118;48.570;7.916;2023-02-15T04:40:30;1.10;99.90
10155;DHT22;5118;48.570;7.916;2023-02-15T04:42:58;1.10;99.90
10155;DHT22;5118;48.570;7.916;2023-02-15T04:45:26;1.10;99.90
10155;DHT22;5118;48.570;7.916;2023-02-15T04:47:55;1.20;99.90
10155;DHT22;5118;48.570;7.916;2023-02-15T04:50:23;1.20;99.90
10155;DHT22;5118;48.570;7.916;2023-02-15T04:52:51;1.20;99.90
10155;DHT22;5118;48.570;7.916;2023-02-15T04:55:21;1.20;99.90
10155;DHT22;5118;48.570;7.916;2023-02-15T04:57:49;1.20;99.90
10155;DHT22;5118;48.570;7.916;2023-02-15T05:00:18;1.20;99.90
10155;DHT22;5118;48.570;7.916;2023-02-15T05:02:46;1.20;99.90
10155;DHT22;5118;48.570;7.916;2023-02-15T05:05:14;1.20;99.90
10155;DHT22;5118;48.570;7.916;2023-02-15T05:07:43;1.30;99.90
10155;DHT22;5118;48.570;7.916;2023-02-15T05:10:11;1.30;99.90
10155;DHT22;5118;48.570;7.916;2023-02-15T05:12:41;1.30;99.90
10155;DHT22;5118;48.570;7.916;2023-02-15T05:15:09;1.30;99.90
10155;DHT22;5118;48.570;7.916;2023-02-15T05:17:38;1.30;99.90
10155;DHT22;5118;48.570;7.916;2023-02-15T05:20:07;1.30;99.90
10155;DHT22;5118;48.570;7.916;2023-02-15T05:22:35;1.30;99.90
10155;DHT22;5118;48.570;7.916;2023-02-15T05:25:03;1.30;99.90
10155;DHT22;5118;48.570;7.916;2023-02-15T05:27:50;1.20;99.90
10155;DHT22;5118;48.570;7.916;2023-02-15T05:30:36;1.20;99.90
10155;DHT22;5118;48.570;7.916;2023-02-15T05:33:07;1.10;99.90
10155;DHT22;5118;48.570;7.916;2023-02-15T05:35:35;1.10;99.90
10155;DHT22;5118;48.570;7.916;2023-02-15T05:38:03;1.10;99.90
10155;DHT22;5118;48.570;7.916;2023-02-15T05:40:31;1.10;99.90
10155;DHT22;5118;48.570;7.916;2023-02-15T05:43:01;1.10;99.90
10155;DHT22;5118;48.570;7.916;2023-02-15T05:45:29;1.10;99.90
10155;DHT22;5118;48.570;7.916;2023-02-15T05:47:58;1.00;99.90
10155;DHT22;5118;48.570;7.916;2023-02-15T05:50:26;1.00;99.90
10155;DHT22;5118;48.570;7.916;2023-02-15T05:52:57;0.90;99.90
10155;DHT22;5118;48.570;7.916;2023-02-15T05:55:26;0.80;99.90
10155;DHT22;5118;48.570;7.916;2023-02-15T05:57:54;0.80;99.90
10155;DHT22;5118;48.570;7.916;2023-02-15T06:00:23;0.80;99.90
10155;DHT22;5118;48.570;7.916;2023-02-15T06:02:52;0.70;99.90
10155;DHT22;5118;48.570;7.916;2023-02-15T06:05:20;0.70;99.90
10155;DHT22;5118;48.570;7.916;2023-02-15T06:07:48;0.70;99.90
10155;DHT22;5118;48.570;7.916;2023-02-15T06:10:16;0.70;99.90
10155;DHT22;5118;48.570;7.916;2023-02-15T06:12:45;0.60;99.90
10155;DHT22;5118;48.570;7.916;2023-02-15T06:15:13;0.60;99.90
10155;DHT22;5118;48.570;7.916;2023-02-15T06:17:43;0.60;99.90
10155;DHT22;5118;48.570;7.916;2023-02-15T06:20:12;0.60;99.90
10155;DHT22;5118;48.570;7.916;2023-02-15T06:22:40;0.60;99.90
10155;DHT22;5118;48.570;7.916;2023-02-15T06:25:08;0.50;99.90
10155;DHT22;5118;48.570;7.916;2023-02-15T06:27:41;0.50;99.90
10155;DHT22;5118;48.570;7.916;2023-02-15T06:30:11;0.50;99.90
10155;DHT22;5118;48.570;7.916;2023-02-15T06:32:39;0.50;99.90
10155;DHT22;5118;48.570;7.916;2023-02-15T06:35:09;0.50;99.90
10155;DHT22;5118;48.570;7.916;2023-02-15T06:37:38;0.50;99.90
10155;DHT22;5118;48.570;7.916;2023-02-15T06:40:08;0.50;99.90
10155;DHT22;5118;48.570;7.916;2023-02-15T06:42:36;0.50;99.90
10155;DHT22;5118;48.570;7.916;2023-02-15T06:45:05;0.50;99.90
10155;DHT22;5118;48.570;7.916;2023-02-15T06:47:34;0.50;99.90
10155;DHT22;5118;48.570;7.916;2023-02-15T06:50:03;0.50;99.90
10155;DHT22;5118;48.570;7.916;2023-02-15T06:52:32;0.60;99.90
10155;DHT22;5118;48.570;7.916;2023-02-15T06:55:01;0.60;99.90
10155;DHT22;5118;48.570;7.916;2023-02-15T06:57:29;0.60;99.90
10155;DHT22;5118;48.570;7.916;2023-02-15T06:59:59;0.50;99.90
10155;DHT22;5118;48.570;7.916;2023-02-15T07:02:28;0.60;99.90
10155;DHT22;5118;48.570;7.916;2023-02-15T07:04:56;0.50;99.90
10155;DHT22;5118;48.570;7.916;2023-02-15T07:07:25;0.60;99.90
10155;DHT22;5118;48.570;7.916;2023-02-15T07:09:54;0.50;99.90
10155;DHT22;5118;48.570;7.916;2023-02-15T07:12:23;0.50;99.90
10155;DHT22;5118;48.570;7.916;2023-02-15T07:15:12;0.50;99.90
10155;DHT22;5118;48.570;7.916;2023-02-15T07:17:40;0.50;99.90
10155;DHT22;5118;48.570;7.916;2023-02-15T07:20:10;0.50;99.90
10155;DHT22;5118;48.570;7.916;2023-02-15T07:22:39;0.40;99.90
10155;DHT22;5118;48.570;7.916;2023-02-15T07:25:10;0.40;99.90
10155;DHT22;5118;48.570;7.916;2023-02-15T07:27:39;0.40;99.90
10155;DHT22;5118;48.570;7.916;2023-02-15T07:30:09;0.40;99.90
10155;DHT22;5118;48.570;7.916;2023-02-15T07:32:38;0.40;99.90
10155;DHT22;5118;48.570;7.916;2023-02-15T07:35:26;0.40;99.90
10155;DHT22;5118;48.570;7.916;2023-02-15T07:37:55;0.40;99.90
10155;DHT22;5118;48.570;7.916;2023-02-15T07:40:25;0.50;99.90
10155;DHT22;5118;48.570;7.916;2023-02-15T07:42:53;0.60;99.90
10155;DHT22;5118;48.570;7.916;2023-02-15T07:45:22;0.50;99.90
10155;DHT22;5118;48.570;7.916;2023-02-15T07:47:50;0.60;99.90
10155;DHT22;5118;48.570;7.916;2023-02-15T07:50:18;0.60;99.90
10155;DHT22;5118;48.570;7.916;2023-02-15T07:52:46;0.70;99.90
10155;DHT22;5118;48.570;7.916;2023-02-15T07:55:15;0.70;99.90
10155;DHT22;5118;48.570;7.916;2023-02-15T07:57:46;0.70;99.90
10155;DHT22;5118;48.570;7.916;2023-02-15T08:00:17;0.70;99.90
10155;DHT22;5118;48.570;7.916;2023-02-15T08:02:47;0.80;99.90
10155;DHT22;5118;48.570;7.916;2023-02-15T08:05:36;0.90;99.90
10155;DHT22;5118;48.570;7.916;2023-02-15T08:08:05;0.90;99.90
10155;DHT22;5118;48.570;7.916;2023-02-15T08:10:35;1.00;99.90
10155;DHT22;5118;48.570;7.916;2023-02-15T08:13:30;1.00;99.90
10155;DHT22;5118;48.570;7.916;2023-02-15T08:15:59;1.10;99.90
10155;DHT22;5118;48.570;7.916;2023-02-15T08:18:28;1.10;99.90
10155;DHT22;5118;48.570;7.916;2023-02-15T08:20:56;1.10;99.90
10155;DHT22;5118;48.570;7.916;2023-02-15T08:23:24;1.10;99.90
10155;DHT22;5118;48.570;7.916;2023-02-15T08:25:53;1.10;99.90
10155;DHT22;5118;48.570;7.916;2023-02-15T08:28:21;1.00;99.90
10155;DHT22;5118;48.570;7.916;2023-02-15T08:30:51;1.10;99.90
10155;DHT22;5118;48.570;7.916;2023-02-15T08:33:19;1.10;99.90
10155;DHT22;5118;48.570;7.916;2023-02-15T08:35:48;1.10;99.90
10155;DHT22;5118;48.570;7.916;2023-02-15T08:38:16;1.20;99.90
10155;DHT22;5118;48.570;7.916;2023-02-15T08:40:45;1.20;99.90
10155;DHT22;5118;48.570;7.916;2023-02-15T08:43:13;1.20;99.90
10155;DHT22;5118;48.570;7.916;2023-02-15T08:45:41;1.30;99.90
10155;DHT22;5118;48.570;7.916;2023-02-15T08:48:11;1.30;99.90
10155;DHT22;5118;48.570;7.916;2023-02-15T08:50:39;1.40;99.90
10155;DHT22;5118;48.570;7.916;2023-02-15T08:53:08;1.40;99.90
10155;DHT22;5118;48.570;7.916;2023-02-15T08:55:36;1.60;99.90
10155;DHT22;5118;48.570;7.916;2023-02-15T08:58:06;1.70;99.90
10155;DHT22;5118;48.570;7.916;2023-02-15T09:00:35;1.80;99.90
10155;DHT22;5118;48.570;7.916;2023-02-15T09:03:03;1.90;99.90
10155;DHT22;5118;48.570;7.916;2023-02-15T09:05:33;2.00;99.90
10155;DHT22;5118;48.570;7.916;2023-02-15T09:08:01;2.00;99.90
10155;DHT22;5118;48.570;7.916;2023-02-15T09:10:30;2.10;99.90
10155;DHT22;5118;48.570;7.916;2023-02-15T09:12:58;2.10;99.90
10155;DHT22;5118;48.570;7.916;2023-02-15T09:15:26;2.20;99.90
10155;DHT22;5118;48.570;7.916;2023-02-15T09:17:54;2.30;99.90
10155;DHT22;5118;48.570;7.916;2023-02-15T09:20:23;2.30;99.90
10155;DHT22;5118;48.570;7.916;2023-02-15T09:22:53;2.30;99.90
10155;DHT22;5118;48.570;7.916;2023-02-15T09:25:25;2.30;99.90
10155;DHT22;5118;48.570;7.916;2023-02-15T09:27:55;2.30;99.90
10155;DHT22;5118;48.570;7.916;2023-02-15T09:30:24;2.30;99.90
10155;DHT22;5118;48.570;7.916;2023-02-15T09:32:53;2.20;99.90
10155;DHT22;5118;48.570;7.916;2023-02-15T09:35:22;2.10;99.90
10155;DHT22;5118;48.570;7.916;2023-02-15T09:37:53;2.10;99.90
10155;DHT22;5118;48.570;7.916;2023-02-15T09:40:22;2.20;99.90
10155;DHT22;5118;48.570;7.916;2023-02-15T09:43:10;2.20;99.90
10155;DHT22;5118;48.570;7.916;2023-02-15T09:46:06;2.30;99.90
10155;DHT22;5118;48.570;7.916;2023-02-15T09:48:41;2.30;99.90
10155;DHT22;5118;48.570;7.916;2023-02-15T09:51:27;2.30;99.90
10155;DHT22;5118;48.570;7.916;2023-02-15T09:54:14;2.40;99.90
10155;DHT22;5118;48.570;7.916;2023-02-15T09:56:48;2.40;99.90
10155;DHT22;5118;48.570;7.916;2023-02-15T09:59:25;2.50;99.90
10155;DHT22;5118;48.570;7.916;2023-02-15T10:02:03;2.60;99.90
10155;DHT22;5118;48.570;7.916;2023-02-15T10:04:47;2.60;99.90
10155;DHT22;5118;48.570;7.916;2023-02-15T10:07:30;2.60;99.90
10155;DHT22;5118;48.570;7.916;2023-02-15T10:10:13;2.60;99.90
10155;DHT22;5118;48.570;7.916;2023-02-15T10:15:45;2.60;99.90
10155;DHT22;5118;48.570;7.916;2023-02-15T10:18:30;2.60;99.90
10155;DHT22;5118;48.570;7.916;2023-02-15T10:21:05;2.60;99.90
10155;DHT22;5118;48.570;7.916;2023-02-15T10:23:48;2.70;99.90
10155;DHT22;5118;48.570;7.916;2023-02-15T10:26:26;2.60;99.90
10155;DHT22;5118;48.570;7.916;2023-02-15T10:28:59;2.60;99.90
10155;DHT22;5118;48.570;7.916;2023-02-15T10:31:36;2.70;99.90
10155;DHT22;5118;48.570;7.916;2023-02-15T10:34:16;2.60;99.90
10155;DHT22;5118;48.570;7.916;2023-02-15T10:39:59;2.60;99.90
10155;DHT22;5118;48.570;7.916;2023-02-15T10:42:45;2.70;99.90
10155;DHT22;5118;48.570;7.916;2023-02-15T10:45:24;2.80;99.90
10155;DHT22;5118;48.570;7.916;2023-02-15T10:48:16;3.00;99.90
10155;DHT22;5118;48.570;7.916;2023-02-15T10:50:51;3.10;99.90
10155;DHT22;5118;48.570;7.916;2023-02-15T10:53:38;3.30;99.90
10155;DHT22;5118;48.570;7.916;2023-02-15T10:56:19;3.40;99.90
10155;DHT22;5118;48.570;7.916;2023-02-15T10:59:04;3.50;99.90
10155;DHT22;5118;48.570;7.916;2023-02-15T11:01:38;3.60;99.90
10155;DHT22;5118;48.570;7.916;2023-02-15T11:04:36;3.80;99.90
10155;DHT22;5118;48.570;7.916;2023-02-15T11:07:14;3.90;99.90
10155;DHT22;5118;48.570;7.916;2023-02-15T11:09:47;4.00;99.90
10155;DHT22;5118;48.570;7.916;2023-02-15T11:12:20;4.20;99.90
10155;DHT22;5118;48.570;7.916;2023-02-15T11:14:57;4.20;99.90
10155;DHT22;5118;48.570;7.916;2023-02-15T11:17:30;4.40;99.90
10155;DHT22;5118;48.570;7.916;2023-02-15T11:20:08;4.50;99.90
10155;DHT22;5118;48.570;7.916;2023-02-15T11:22:38;4.60;99.90
10155;DHT22;5118;48.570;7.916;2023-02-15T11:25:17;4.60;99.90
10155;DHT22;5118;48.570;7.916;2023-02-15T11:27:48;4.60;99.90
10155;DHT22;5118;48.570;7.916;2023-02-15T11:30:24;4.50;99.90
10155;DHT22;5118;48.570;7.916;2023-02-15T11:32:55;4.30;99.90
10155;DHT22;5118;48.570;7.916;2023-02-15T11:35:27;4.30;99.90
10155;DHT22;5118;48.570;7.916;2023-02-15T11:38:03;4.20;99.90
10155;DHT22;5118;48.570;7.916;2023-02-15T11:40:36;4.20;99.90
10155;DHT22;5118;48.570;7.916;2023-02-15T11:43:14;4.30;99.90
10155;DHT22;5118;48.570;7.916;2023-02-15T11:45:46;4.40;99.90
10155;DHT22;5118;48.570;7.916;2023-02-15T11:48:15;4.50;99.90
10155;DHT22;5118;48.570;7.916;2023-02-15T11:50:45;4.60;99.90
10155;DHT22;5118;48.570;7.916;2023-02-15T11:53:15;4.70;99.90
10155;DHT22;5118;48.570;7.916;2023-02-15T11:55:45;4.70;99.90
10155;DHT22;5118;48.570;7.916;2023-02-15T11:58:23;4.80;99.90
10155;DHT22;5118;48.570;7.916;2023-02-15T12:01:01;4.90;99.90
10155;DHT22;5118;48.570;7.916;2023-02-15T12:03:40;5.00;99.90
10155;DHT22;5118;48.570;7.916;2023-02-15T12:06:24;5.10;99.90
10155;DHT22;5118;48.570;7.916;2023-02-15T12:09:00;5.00;99.90
10155;DHT22;5118;48.570;7.916;2023-02-15T12:11:36;4.90;99.90
10155;DHT22;5118;48.570;7.916;2023-02-15T12:14:06;4.90;99.90
10155;DHT22;5118;48.570;7.916;2023-02-15T12:16:43;4.90;99.90
10155;DHT22;5118;48.570;7.916;2023-02-15T12:19:30;4.90;99.90
10155;DHT22;5118;48.570;7.916;2023-02-15T12:22:01;4.90;99.90
10155;DHT22;5118;48.570;7.916;2023-02-15T12:24:33;5.00;99.90
10155;DHT22;5118;48.570;7.916;2023-02-15T12:27:04;5.00;99.90
10155;DHT22;5118;48.570;7.916;2023-02-15T12:29:39;5.00;99.90
10155;DHT22;5118;48.570;7.916;2023-02-15T12:32:17;5.00;99.90
10155;DHT22;5118;48.570;7.916;2023-02-15T12:34:47;5.00;99.90
10155;DHT22;5118;48.570;7.916;2023-02-15T12:37:19;5.10;99.90
10155;DHT22;5118;48.570;7.916;2023-02-15T12:39:55;5.10;99.90
10155;DHT22;5118;48.570;7.916;2023-02-15T12:42:25;5.20;99.90
10155;DHT22;5118;48.570;7.916;2023-02-15T12:44:56;5.20;99.90
10155;DHT22;5118;48.570;7.916;2023-02-15T12:47:27;5.30;99.90
10155;DHT22;5118;48.570;7.916;2023-02-15T12:50:12;5.40;99.90
10155;DHT22;5118;48.570;7.916;2023-02-15T12:52:46;5.60;99.90
10155;DHT22;5118;48.570;7.916;2023-02-15T12:55:22;5.70;99.90
10155;DHT22;5118;48.570;7.916;2023-02-15T12:58:08;5.80;99.90
10155;DHT22;5118;48.570;7.916;2023-02-15T13:00:37;5.90;99.90
10155;DHT22;5118;48.570;7.916;2023-02-15T13:03:17;6.00;99.90
10155;DHT22;5118;48.570;7.916;2023-02-15T13:05:48;6.10;99.90
10155;DHT22;5118;48.570;7.916;2023-02-15T13:08:20;6.10;99.90
10155;DHT22;5118;48.570;7.916;2023-02-15T13:10:54;6.00;99.90
10155;DHT22;5118;48.570;7.916;2023-02-15T13:13:26;6.00;99.90
10155;DHT22;5118;48.570;7.916;2023-02-15T13:15:58;6.00;99.90
10155;DHT22;5118;48.570;7.916;2023-02-15T13:18:32;6.00;99.90
10155;DHT22;5118;48.570;7.916;2023-02-15T13:21:09;6.00;99.90
10155;DHT22;5118;48.570;7.916;2023-02-15T13:23:42;5.90;99.90
10155;DHT22;5118;48.570;7.916;2023-02-15T13:26:16;5.70;99.90
10155;DHT22;5118;48.570;7.916;2023-02-15T13:28:47;5.60;99.90
10155;DHT22;5118;48.570;7.916;2023-02-15T13:31:18;5.40;99.90
10155;DHT22;5118;48.570;7.916;2023-02-15T13:33:51;5.40;99.90
10155;DHT22;5118;48.570;7.916;2023-02-15T13:36:23;5.10;99.90
10155;DHT22;5118;48.570;7.916;2023-02-15T13:39:03;5.00;99.90
10155;DHT22;5118;48.570;7.916;2023-02-15T13:41:46;5.00;99.90
10155;DHT22;5118;48.570;7.916;2023-02-15T13:44:26;5.10;99.90
10155;DHT22;5118;48.570;7.916;2023-02-15T13:47:06;5.20;99.90
10155;DHT22;5118;48.570;7.916;2023-02-15T13:49:48;5.30;99.90
10155;DHT22;5118;48.570;7.916;2023-02-15T13:52:21;5.40;99.90
10155;DHT22;5118;48.570;7.916;2023-02-15T13:55:02;5.50;99.90
10155;DHT22;5118;48.570;7.916;2023-02-15T13:57:44;5.60;99.90
10155;DHT22;5118;48.570;7.916;2023-02-15T14:00:22;5.70;99.90
10155;DHT22;5118;48.570;7.916;2023-02-15T14:03:06;5.80;99.90
10155;DHT22;5118;48.570;7.916;2023-02-15T14:05:52;5.80;99.90
10155;DHT22;5118;48.570;7.916;2023-02-15T14:08:36;5.90;99.90
10155;DHT22;5118;48.570;7.916;2023-02-15T14:11:11;6.00;99.90
10155;DHT22;5118;48.570;7.916;2023-02-15T14:14:05;6.10;99.90
10155;DHT22;5118;48.570;7.916;2023-02-15T14:16:45;6.20;99.90
10155;DHT22;5118;48.570;7.916;2023-02-15T14:19:37;6.30;99.90
10155;DHT22;5118;48.570;7.916;2023-02-15T14:22:18;6.30;99.90
10155;DHT22;5118;48.570;7.916;2023-02-15T14:24:59;6.30;99.90
10155;DHT22;5118;48.570;7.916;2023-02-15T14:27:41;6.20;99.90
10155;DHT22;5118;48.570;7.916;2023-02-15T14:30:17;6.10;99.90
10155;DHT22;5118;48.570;7.916;2023-02-15T14:32:48;5.90;99.90
10155;DHT22;5118;48.570;7.916;2023-02-15T14:35:19;5.80;99.90
10155;DHT22;5118;48.570;7.916;2023-02-15T14:37:54;5.80;99.90
10155;DHT22;5118;48.570;7.916;2023-02-15T14:40:32;5.70;99.90
10155;DHT22;5118;48.570;7.916;2023-02-15T14:43:27;5.70;99.90
10155;DHT22;5118;48.570;7.916;2023-02-15T14:46:03;5.60;99.90
10155;DHT22;5118;48.570;7.916;2023-02-15T14:48:40;5.50;99.90
10155;DHT22;5118;48.570;7.916;2023-02-15T14:51:10;5.50;99.90
10155;DHT22;5118;48.570;7.916;2023-02-15T14:53:39;5.50;99.90
10155;DHT22;5118;48.570;7.916;2023-02-15T14:56:21;5.50;99.90
10155;DHT22;5118;48.570;7.916;2023-02-15T14:58:59;5.50;99.90
10155;DHT22;5118;48.570;7.916;2023-02-15T15:01:30;5.60;99.90
10155;DHT22;5118;48.570;7.916;2023-02-15T15:04:02;5.60;99.90
10155;DHT22;5118;48.570;7.916;2023-02-15T15:06:34;5.60;99.90
10155;DHT22;5118;48.570;7.916;2023-02-15T15:09:11;5.50;99.90
10155;DHT22;5118;48.570;7.916;2023-02-15T15:11:43;5.40;99.90
10155;DHT22;5118;48.570;7.916;2023-02-15T15:14:37;5.30;99.90
10155;DHT22;5118;48.570;7.916;2023-02-15T15:17:06;5.30;99.90
10155;DHT22;5118;48.570;7.916;2023-02-15T15:20:13;5.20;99.90
10155;DHT22;5118;48.570;7.916;2023-02-15T15:26:23;5.10;99.90
10155;DHT22;5118;48.570;7.916;2023-02-15T15:28:59;5.10;99.90
10155;DHT22;5118;48.570;7.916;2023-02-15T15:31:37;5.10;99.90
10155;DHT22;5118;48.570;7.916;2023-02-15T15:34:27;5.00;99.90
10155;DHT22;5118;48.570;7.916;2023-02-15T15:37:20;5.00;99.90
10155;DHT22;5118;48.570;7.916;2023-02-15T15:40:17;4.90;99.90
10155;DHT22;5118;48.570;7.916;2023-02-15T15:43:04;4.90;99.90
10155;DHT22;5118;48.570;7.916;2023-02-15T15:46:04;4.80;99.90
10155;DHT22;5118;48.570;7.916;2023-02-15T15:48:36;4.70;99.90
10155;DHT22;5118;48.570;7.916;2023-02-15T15:51:11;4.60;99.90
10155;DHT22;5118;48.570;7.916;2023-02-15T15:53:43;4.60;99.90
10155;DHT22;5118;48.570;7.916;2023-02-15T15:56:17;4.50;99.90
10155;DHT22;5118;48.570;7.916;2023-02-15T15:58:50;4.40;99.90
10155;DHT22;5118;48.570;7.916;2023-02-15T16:01:26;4.20;99.90
10155;DHT22;5118;48.570;7.916;2023-02-15T16:03:57;4.10;99.90
10155;DHT22;5118;48.570;7.916;2023-02-15T16:06:30;4.00;99.90
10155;DHT22;5118;48.570;7.916;2023-02-15T16:09:14;3.90;99.90
10155;DHT22;5118;48.570;7.916;2023-02-15T16:11:46;3.80;99.90
10155;DHT22;5118;48.570;7.916;2023-02-15T16:14:19;3.70;99.90
10155;DHT22;5118;48.570;7.916;2023-02-15T16:16:52;3.70;99.90
10155;DHT22;5118;48.570;7.916;2023-02-15T16:19:25;3.60;99.90
10155;DHT22;5118;48.570;7.916;2023-02-15T16:21:55;3.50;99.90
10155;DHT22;5118;48.570;7.916;2023-02-15T16:24:38;3.40;99.90
10155;DHT22;5118;48.570;7.916;2023-02-15T16:27:17;3.40;99.90
10155;DHT22;5118;48.570;7.916;2023-02-15T16:29:50;3.30;99.90
10155;DHT22;5118;48.570;7.916;2023-02-15T16:32:21;3.30;99.90
10155;DHT22;5118;48.570;7.916;2023-02-15T16:34:54;3.30;99.90
10155;DHT22;5118;48.570;7.916;2023-02-15T16:37:25;3.30;99.90
10155;DHT22;5118;48.570;7.916;2023-02-15T16:39:55;3.30;99.90
10155;DHT22;5118;48.570;7.916;2023-02-15T16:42:23;3.20;99.90
10155;DHT22;5118;48.570;7.916;2023-02-15T16:44:55;3.20;99.90
10155;DHT22;5118;48.570;7.916;2023-02-15T16:47:26;3.20;99.90
10155;DHT22;5118;48.570;7.916;2023-02-15T16:49:59;3.20;99.90
10155;DHT22;5118;48.570;7.916;2023-02-15T16:52:29;3.10;99.90
10155;DHT22;5118;48.570;7.916;2023-02-15T16:54:59;3.10;99.90